sensor_id;sensor_type;location;lat;lon;timestamp;pressure;altitude;pressure_sealevel;temperature;humidity
68226;BME280;55045;49.410;11.030;2024-03-29T00:02:22;96637.31;;;4.86;100.00
68226;BME280;55045;49.410;11.030;2024-03-29T00:05:25;96638.84;;;4.90;100.00
68226;BME280;55045;49.410;11.030;2024-03-29T00:08:28;96629.75;;;4.83;100.00
68226;BME280;55045;49.410;11.030;2024-03-29T00:11:29;96635.06;;;4.80;100.00
68226;BME280;55045;49.410;11.030;2024-03-29T00:14:34;96630.50;;;4.85;100.00
68226;BME280;55045;49.410;11.030;2024-03-29T00:17:36;96621.53;;;4.94;100.00
68226;BME280;55045;49.410;11.030;2024-03-29T00:20:39;96617.97;;;4.97;100.00
68226;BME280;55045;49.410;11.030;2024-03-29T00:23:41;96612.91;;;4.95;100.00
68226;BME280;55045;49.410;11.030;2024-03-29T00:26:43;96614.94;;;4.88;100.00
68226;BME280;55045;49.410;11.030;2024-03-29T00:29:45;96614.66;;;4.95;100.00
68226;BME280;55045;49.410;11.030;2024-03-29T00:32:47;96618.88;;;4.78;100.00
68226;BME280;55045;49.410;11.030;2024-03-29T00:35:50;96627.00;;;4.69;100.00
68226;BME280;55045;49.410;11.030;2024-03-29T00:38:52;96638.44;;;4.63;100.00
68226;BME280;55045;49.410;11.030;2024-03-29T00:41:53;96629.91;;;4.63;100.00
68226;BME280;55045;49.410;11.030;2024-03-29T00:44:55;96616.44;;;4.58;100.00
68226;BME280;55045;49.410;11.030;2024-03-29T00:47:57;96619.72;;;4.61;100.00
68226;BME280;55045;49.410;11.030;2024-03-29T00:51:00;96604.66;;;4.54;100.00
68226;BME280;55045;49.410;11.030;2024-03-29T00:54:02;96600.44;;;4.53;100.00
68226;BME280;55045;49.410;11.030;2024-03-29T00:57:04;96593.25;;;4.59;100.00
68226;BME280;55045;49.410;11.030;2024-03-29T01:00:07;96585.50;;;4.61;100.00
68226;BME280;55045;49.410;11.030;2024-03-29T01:03:10;96571.13;;;4.57;100.00
68226;BME280;55045;49.410;11.030;2024-03-29T01:06:13;96564.50;;;4.53;100.00
68226;BME280;55045;49.410;11.030;2024-03-29T01:09:14;96546.38;;;4.73;100.00
68226;BME280;55045;49.410;11.030;2024-03-29T01:12:16;96542.97;;;4.55;100.00
68226;BME280;55045;49.410;11.030;2024-03-29T01:15:18;96542.50;;;4.65;100.00
68226;BME280;55045;49.410;11.030;2024-03-29T01:18:20;96541.81;;;4.78;100.00
68226;BME280;55045;49.410;11.030;2024-03-29T01:21:23;96544.25;;;4.81;100.00
68226;BME280;55045;49.410;11.030;2024-03-29T01:24:25;96545.91;;;4.82;100.00
68226;BME280;55045;49.410;11.030;2024-03-29T01:27:27;96533.16;;;4.81;100.00
68226;BME280;55045;49.410;11.030;2024-03-29T01:30:29;96545.56;;;4.88;100.00
68226;BME280;55045;49.410;11.030;2024-03-29T01:33:31;96569.84;;;4.83;100.00
68226;BME280;55045;49.410;11.030;2024-03-29T01:36:35;96553.19;;;4.90;100.00
68226;BME280;55045;49.410;11.030;2024-03-29T01:39:36;96559.78;;;4.96;100.00
68226;BME280;55045;49.410;11.030;2024-03-29T01:42:38;96554.56;;;4.97;100.00
68226;BME280;55045;49.410;11.030;2024-03-29T01:45:41;96521.31;;;5.11;100.00
68226;BME280;55045;49.410;11.030;2024-03-29T01:48:44;96530.31;;;5.03;100.00
68226;BME280;55045;49.410;11.030;2024-03-29T01:51:49;96533.84;;;5.00;100.00
68226;BME280;55045;49.410;11.030;2024-03-29T01:54:52;96533.28;;;4.78;100.00
68226;BME280;55045;49.410;11.030;2024-03-29T01:57:56;96537.91;;;4.71;100.00
68226;BME280;55045;49.410;11.030;2024-03-29T02:01:04;96541.53;;;4.67;100.00
68226;BME280;55045;49.410;11.030;2024-03-29T02:04:08;96523.47;;;4.69;100.00
68226;BME280;55045;49.410;11.030;2024-03-29T02:07:13;96517.50;;;4.85;100.00
68226;BME280;55045;49.410;11.030;2024-03-29T02:10:16;96521.91;;;4.99;100.00
68226;BME280;55045;49.410;11.030;2024-03-29T02:13:20;96519.06;;;4.88;100.00
68226;BME280;55045;49.410;11.030;2024-03-29T02:16:22;96519.75;;;4.91;100.00
68226;BME280;55045;49.410;11.030;2024-03-29T02:19:25;96515.47;;;5.08;100.00
68226;BME280;55045;49.410;11.030;2024-03-29T02:22:30;96497.19;;;5.14;100.00
68226;BME280;55045;49.410;11.030;2024-03-29T02:25:36;96525.78;;;5.24;100.00
68226;BME280;55045;49.410;11.030;2024-03-29T02:28:39;96518.84;;;5.26;100.00
68226;BME280;55045;49.410;11.030;2024-03-29T02:31:42;96519.34;;;5.32;100.00
68226;BME280;55045;49.410;11.030;2024-03-29T02:34:44;96519.84;;;5.23;100.00
68226;BME280;55045;49.410;11.030;2024-03-29T02:37:47;96507.81;;;5.24;100.00
68226;BME280;55045;49.410;11.030;2024-03-29T02:40:51;96489.31;;;5.48;100.00
68226;BME280;55045;49.410;11.030;2024-03-29T02:43:54;96500.09;;;5.39;100.00
68226;BME280;55045;49.410;11.030;2024-03-29T02:46:58;96496.47;;;5.43;100.00
68226;BME280;55045;49.410;11.030;2024-03-29T02:50:01;96494.03;;;5.40;100.00
68226;BME280;55045;49.410;11.030;2024-03-29T02:53:03;96493.22;;;5.56;100.00
68226;BME280;55045;49.410;11.030;2024-03-29T02:56:07;96488.50;;;5.48;100.00
68226;BME280;55045;49.410;11.030;2024-03-29T02:59:09;96487.50;;;5.50;100.00
68226;BME280;55045;49.410;11.030;2024-03-29T03:02:12;96493.47;;;5.51;100.00
68226;BME280;55045;49.410;11.030;2024-03-29T03:05:14;96481.69;;;5.47;100.00
68226;BME280;55045;49.410;11.030;2024-03-29T03:08:17;96474.72;;;5.49;100.00
68226;BME280;55045;49.410;11.030;2024-03-29T03:11:38;96481.28;;;5.55;100.00
68226;BME280;55045;49.410;11.030;2024-03-29T03:14:42;96471.91;;;5.54;100.00
68226;BME280;55045;49.410;11.030;2024-03-29T03:17:45;96466.59;;;5.57;100.00
68226;BME280;55045;49.410;11.030;2024-03-29T03:20:51;96459.22;;;5.50;100.00
68226;BME280;55045;49.410;11.030;2024-03-29T03:23:53;96447.69;;;5.73;100.00
68226;BME280;55045;49.410;11.030;2024-03-29T03:26:57;96455.88;;;5.80;100.00
68226;BME280;55045;49.410;11.030;2024-03-29T03:29:59;96464.25;;;5.84;100.00
68226;BME280;55045;49.410;11.030;2024-03-29T03:33:02;96473.47;;;5.88;100.00
68226;BME280;55045;49.410;11.030;2024-03-29T03:36:04;96485.25;;;5.92;100.00
68226;BME280;55045;49.410;11.030;2024-03-29T03:39:07;96490.34;;;5.93;100.00
68226;BME280;55045;49.410;11.030;2024-03-29T03:42:12;96474.44;;;6.01;100.00
68226;BME280;55045;49.410;11.030;2024-03-29T03:45:15;96472.72;;;6.01;100.00
68226;BME280;55045;49.410;11.030;2024-03-29T03:48:18;96461.25;;;6.07;100.00
68226;BME280;55045;49.410;11.030;2024-03-29T03:51:19;96493.63;;;6.11;100.00
68226;BME280;55045;49.410;11.030;2024-03-29T03:54:25;96486.66;;;6.13;100.00
68226;BME280;55045;49.410;11.030;2024-03-29T03:57:29;96492.44;;;6.17;100.00
68226;BME280;55045;49.410;11.030;2024-03-29T04:00:31;96483.59;;;6.06;100.00
68226;BME280;55045;49.410;11.030;2024-03-29T04:03:34;96461.03;;;5.96;100.00
68226;BME280;55045;49.410;11.030;2024-03-29T04:06:36;96470.53;;;6.10;100.00
68226;BME280;55045;49.410;11.030;2024-03-29T04:09:38;96473.94;;;6.10;100.00
68226;BME280;55045;49.410;11.030;2024-03-29T04:12:42;96471.28;;;6.12;100.00
68226;BME280;55045;49.410;11.030;2024-03-29T04:15:44;96463.22;;;6.18;100.00
68226;BME280;55045;49.410;11.030;2024-03-29T04:18:47;96463.22;;;6.18;100.00
68226;BME280;55045;49.410;11.030;2024-03-29T04:21:52;96438.69;;;5.96;100.00
68226;BME280;55045;49.410;11.030;2024-03-29T04:24:55;96481.97;;;6.20;100.00
68226;BME280;55045;49.410;11.030;2024-03-29T04:28:00;96480.06;;;6.23;100.00
68226;BME280;55045;49.410;11.030;2024-03-29T04:34:12;96481.06;;;6.21;100.00
68226;BME280;55045;49.410;11.030;2024-03-29T04:37:15;96457.25;;;6.17;100.00
68226;BME280;55045;49.410;11.030;2024-03-29T04:40:18;96518.94;;;6.49;100.00
68226;BME280;55045;49.410;11.030;2024-03-29T04:43:23;96512.25;;;6.60;100.00
68226;BME280;55045;49.410;11.030;2024-03-29T04:46:29;96478.22;;;6.55;100.00
68226;BME280;55045;49.410;11.030;2024-03-29T04:49:34;96513.44;;;6.55;100.00
68226;BME280;55045;49.410;11.030;2024-03-29T04:52:38;96513.66;;;6.66;100.00
68226;BME280;55045;49.410;11.030;2024-03-29T04:55:41;96505.34;;;6.61;100.00
68226;BME280;55045;49.410;11.030;2024-03-29T04:58:45;96527.16;;;6.55;100.00
68226;BME280;55045;49.410;11.030;2024-03-29T05:01:48;96516.09;;;6.53;100.00
68226;BME280;55045;49.410;11.030;2024-03-29T05:04:54;96521.09;;;6.56;100.00
68226;BME280;55045;49.410;11.030;2024-03-29T05:07:58;96521.09;;;6.56;100.00
68226;BME280;55045;49.410;11.030;2024-03-29T05:11:01;96529.03;;;6.68;100.00
68226;BME280;55045;49.410;11.030;2024-03-29T05:14:03;96538.13;;;6.73;100.00
68226;BME280;55045;49.410;11.030;2024-03-29T05:17:06;96547.16;;;6.80;100.00
68226;BME280;55045;49.410;11.030;2024-03-29T05:20:11;96537.34;;;7.01;100.00
68226;BME280;55045;49.410;11.030;2024-03-29T05:23:14;96563.72;;;6.76;100.00
68226;BME280;55045;49.410;11.030;2024-03-29T05:26:18;96548.38;;;6.89;100.00
68226;BME280;55045;49.410;11.030;2024-03-29T05:29:20;96573.22;;;6.76;100.00
68226;BME280;55045;49.410;11.030;2024-03-29T05:32:23;96567.97;;;6.91;100.00
68226;BME280;55045;49.410;11.030;2024-03-29T05:35:27;96585.81;;;6.80;100.00
68226;BME280;55045;49.410;11.030;2024-03-29T05:38:30;96543.22;;;6.89;100.00
68226;BME280;55045;49.410;11.030;2024-03-29T05:41:33;96560.69;;;6.84;100.00
68226;BME280;55045;49.410;11.030;2024-03-29T05:44:35;96573.28;;;6.74;100.00
68226;BME280;55045;49.410;11.030;2024-03-29T05:47:38;96563.75;;;6.90;100.00
68226;BME280;55045;49.410;11.030;2024-03-29T05:50:42;96543.75;;;6.80;100.00
68226;BME280;55045;49.410;11.030;2024-03-29T05:53:45;96546.47;;;7.07;100.00
68226;BME280;55045;49.410;11.030;2024-03-29T05:56:48;96537.34;;;6.87;100.00
68226;BME280;55045;49.410;11.030;2024-03-29T05:59:51;96550.03;;;6.76;100.00
68226;BME280;55045;49.410;11.030;2024-03-29T06:02:53;96559.84;;;6.83;100.00
68226;BME280;55045;49.410;11.030;2024-03-29T06:05:59;96552.06;;;6.85;100.00
68226;BME280;55045;49.410;11.030;2024-03-29T06:09:04;96553.88;;;6.83;100.00
68226;BME280;55045;49.410;11.030;2024-03-29T06:12:08;96533.00;;;6.87;100.00
68226;BME280;55045;49.410;11.030;2024-03-29T06:15:13;96571.78;;;7.00;100.00
68226;BME280;55045;49.410;11.030;2024-03-29T06:18:33;96559.91;;;7.12;100.00
68226;BME280;55045;49.410;11.030;2024-03-29T06:21:37;96544.91;;;7.18;100.00
68226;BME280;55045;49.410;11.030;2024-03-29T06:24:41;96566.63;;;7.14;100.00
68226;BME280;55045;49.410;11.030;2024-03-29T06:27:45;96566.56;;;7.16;100.00
68226;BME280;55045;49.410;11.030;2024-03-29T06:30:49;96560.19;;;7.21;100.00
68226;BME280;55045;49.410;11.030;2024-03-29T06:33:52;96590.41;;;7.19;100.00
68226;BME280;55045;49.410;11.030;2024-03-29T06:36:56;96553.47;;;7.19;100.00
68226;BME280;55045;49.410;11.030;2024-03-29T06:39:59;96532.47;;;7.25;100.00
68226;BME280;55045;49.410;11.030;2024-03-29T06:43:01;96524.28;;;7.18;100.00
68226;BME280;55045;49.410;11.030;2024-03-29T06:46:05;96523.75;;;7.28;100.00
68226;BME280;55045;49.410;11.030;2024-03-29T06:49:08;96540.13;;;7.41;100.00
68226;BME280;55045;49.410;11.030;2024-03-29T06:52:12;96528.97;;;7.40;100.00
68226;BME280;55045;49.410;11.030;2024-03-29T06:55:15;96523.53;;;7.45;100.00
68226;BME280;55045;49.410;11.030;2024-03-29T06:58:18;96519.66;;;7.52;100.00
68226;BME280;55045;49.410;11.030;2024-03-29T07:01:23;96505.47;;;7.59;100.00
68226;BME280;55045;49.410;11.030;2024-03-29T07:04:26;96512.25;;;7.74;100.00
68226;BME280;55045;49.410;11.030;2024-03-29T07:07:30;96523.31;;;8.03;100.00
68226;BME280;55045;49.410;11.030;2024-03-29T07:10:33;96515.13;;;8.38;100.00
68226;BME280;55045;49.410;11.030;2024-03-29T07:13:36;96487.72;;;8.35;100.00
68226;BME280;55045;49.410;11.030;2024-03-29T07:16:39;96506.03;;;8.58;100.00
68226;BME280;55045;49.410;11.030;2024-03-29T07:19:42;96479.94;;;9.01;100.00
68226;BME280;55045;49.410;11.030;2024-03-29T07:22:46;96494.47;;;9.27;100.00
68226;BME280;55045;49.410;11.030;2024-03-29T07:25:58;96479.19;;;9.24;100.00
68226;BME280;55045;49.410;11.030;2024-03-29T07:29:01;96500.75;;;9.61;100.00
68226;BME280;55045;49.410;11.030;2024-03-29T07:32:06;96468.41;;;9.67;96.96
68226;BME280;55045;49.410;11.030;2024-03-29T07:35:09;96488.75;;;10.08;96.57
68226;BME280;55045;49.410;11.030;2024-03-29T07:38:14;96518.09;;;10.08;97.19
68226;BME280;55045;49.410;11.030;2024-03-29T07:41:18;96496.38;;;9.98;95.63
68226;BME280;55045;49.410;11.030;2024-03-29T07:44:21;96492.00;;;9.75;95.32
68226;BME280;55045;49.410;11.030;2024-03-29T07:47:24;96490.19;;;9.64;97.52
68226;BME280;55045;49.410;11.030;2024-03-29T07:50:29;96498.88;;;9.63;98.82
68226;BME280;55045;49.410;11.030;2024-03-29T07:53:33;96533.44;;;9.75;98.79
68226;BME280;55045;49.410;11.030;2024-03-29T07:56:36;96526.56;;;9.87;95.93
68226;BME280;55045;49.410;11.030;2024-03-29T07:59:39;96537.84;;;9.86;96.08
68226;BME280;55045;49.410;11.030;2024-03-29T08:02:41;96514.50;;;9.98;94.13
68226;BME280;55045;49.410;11.030;2024-03-29T08:05:56;96507.97;;;10.29;94.45
68226;BME280;55045;49.410;11.030;2024-03-29T08:09:01;96521.16;;;10.61;94.10
68226;BME280;55045;49.410;11.030;2024-03-29T08:12:04;96515.34;;;10.82;91.55
68226;BME280;55045;49.410;11.030;2024-03-29T08:15:07;96521.63;;;11.13;91.84
68226;BME280;55045;49.410;11.030;2024-03-29T08:18:10;96507.13;;;11.21;88.31
68226;BME280;55045;49.410;11.030;2024-03-29T08:21:12;96512.81;;;11.27;90.77
68226;BME280;55045;49.410;11.030;2024-03-29T08:24:16;96500.66;;;11.05;88.81
68226;BME280;55045;49.410;11.030;2024-03-29T08:27:19;96492.50;;;11.09;88.91
68226;BME280;55045;49.410;11.030;2024-03-29T08:30:22;96488.97;;;10.99;87.76
68226;BME280;55045;49.410;11.030;2024-03-29T08:33:25;96478.59;;;11.10;89.64
68226;BME280;55045;49.410;11.030;2024-03-29T08:36:28;96461.88;;;11.25;92.23
68226;BME280;55045;49.410;11.030;2024-03-29T08:39:32;96453.59;;;11.09;90.84
68226;BME280;55045;49.410;11.030;2024-03-29T08:42:35;96454.53;;;11.08;93.48
68226;BME280;55045;49.410;11.030;2024-03-29T08:45:39;96468.91;;;11.12;92.70
68226;BME280;55045;49.410;11.030;2024-03-29T08:48:42;96463.38;;;11.17;92.71
68226;BME280;55045;49.410;11.030;2024-03-29T08:51:45;96476.94;;;10.98;96.33
68226;BME280;55045;49.410;11.030;2024-03-29T08:54:49;96505.72;;;10.95;96.06
68226;BME280;55045;49.410;11.030;2024-03-29T08:57:53;96516.38;;;10.79;98.81
68226;BME280;55045;49.410;11.030;2024-03-29T09:00:56;96538.63;;;10.71;100.00
68226;BME280;55045;49.410;11.030;2024-03-29T09:03:59;96553.06;;;10.51;100.00
68226;BME280;55045;49.410;11.030;2024-03-29T09:07:02;96562.59;;;10.50;100.00
68226;BME280;55045;49.410;11.030;2024-03-29T09:10:07;96565.25;;;10.37;100.00
68226;BME280;55045;49.410;11.030;2024-03-29T09:13:10;96563.78;;;10.09;100.00
68226;BME280;55045;49.410;11.030;2024-03-29T09:16:13;96586.16;;;9.74;100.00
68226;BME280;55045;49.410;11.030;2024-03-29T09:19:16;96596.50;;;9.48;100.00
68226;BME280;55045;49.410;11.030;2024-03-29T09:22:19;96600.22;;;9.19;100.00
68226;BME280;55045;49.410;11.030;2024-03-29T09:25:23;96609.13;;;9.15;100.00
68226;BME280;55045;49.410;11.030;2024-03-29T09:28:26;96625.75;;;8.98;100.00
68226;BME280;55045;49.410;11.030;2024-03-29T09:31:29;96628.84;;;8.90;100.00
68226;BME280;55045;49.410;11.030;2024-03-29T09:34:31;96633.91;;;8.79;100.00
68226;BME280;55045;49.410;11.030;2024-03-29T09:37:34;96647.66;;;8.80;100.00
68226;BME280;55045;49.410;11.030;2024-03-29T09:40:40;96657.53;;;8.73;100.00
68226;BME280;55045;49.410;11.030;2024-03-29T09:43:44;96649.34;;;8.66;100.00
68226;BME280;55045;49.410;11.030;2024-03-29T09:46:48;96647.72;;;8.78;100.00
68226;BME280;55045;49.410;11.030;2024-03-29T09:49:53;96642.56;;;8.78;100.00
68226;BME280;55045;49.410;11.030;2024-03-29T09:52:57;96630.97;;;8.71;100.00
68226;BME280;55045;49.410;11.030;2024-03-29T09:56:03;96613.25;;;8.65;100.00
68226;BME280;55045;49.410;11.030;2024-03-29T09:59:06;96631.31;;;8.79;100.00
68226;BME280;55045;49.410;11.030;2024-03-29T10:02:14;96660.72;;;8.91;100.00
68226;BME280;55045;49.410;11.030;2024-03-29T10:05:18;96668.56;;;8.89;100.00
68226;BME280;55045;49.410;11.030;2024-03-29T10:08:23;96651.66;;;9.11;100.00
68226;BME280;55045;49.410;11.030;2024-03-29T10:11:30;96633.84;;;9.06;100.00
68226;BME280;55045;49.410;11.030;2024-03-29T10:14:43;96614.19;;;9.04;100.00
68226;BME280;55045;49.410;11.030;2024-03-29T10:17:50;96613.97;;;9.07;100.00
68226;BME280;55045;49.410;11.030;2024-03-29T10:21:00;96600.66;;;9.13;100.00
68226;BME280;55045;49.410;11.030;2024-03-29T10:24:11;96573.75;;;9.28;100.00
68226;BME280;55045;49.410;11.030;2024-03-29T10:27:15;96576.72;;;9.60;100.00
68226;BME280;55045;49.410;11.030;2024-03-29T10:34:12;96608.81;;;9.58;100.00
68226;BME280;55045;49.410;11.030;2024-03-29T10:37:15;96631.81;;;9.75;100.00
68226;BME280;55045;49.410;11.030;2024-03-29T10:40:21;96606.44;;;9.67;100.00
68226;BME280;55045;49.410;11.030;2024-03-29T10:43:25;96600.75;;;9.75;100.00
68226;BME280;55045;49.410;11.030;2024-03-29T10:46:29;96613.56;;;9.89;100.00
68226;BME280;55045;49.410;11.030;2024-03-29T10:49:35;96608.38;;;9.89;100.00
68226;BME280;55045;49.410;11.030;2024-03-29T10:52:39;96607.97;;;9.95;100.00
68226;BME280;55045;49.410;11.030;2024-03-29T10:55:43;96616.97;;;10.02;100.00
68226;BME280;55045;49.410;11.030;2024-03-29T10:58:50;96609.91;;;10.04;100.00
68226;BME280;55045;49.410;11.030;2024-03-29T11:01:59;96608.75;;;10.08;100.00
68226;BME280;55045;49.410;11.030;2024-03-29T11:05:06;96584.31;;;10.00;100.00
68226;BME280;55045;49.410;11.030;2024-03-29T11:08:12;96550.84;;;9.73;100.00
68226;BME280;55045;49.410;11.030;2024-03-29T11:11:16;96577.47;;;9.99;100.00
68226;BME280;55045;49.410;11.030;2024-03-29T11:14:25;96581.53;;;10.03;100.00
68226;BME280;55045;49.410;11.030;2024-03-29T11:17:29;96568.13;;;10.09;100.00
68226;BME280;55045;49.410;11.030;2024-03-29T11:20:35;96555.44;;;9.93;100.00
68226;BME280;55045;49.410;11.030;2024-03-29T11:23:39;96542.28;;;9.96;100.00
68226;BME280;55045;49.410;11.030;2024-03-29T11:26:42;96540.19;;;10.01;100.00
68226;BME280;55045;49.410;11.030;2024-03-29T11:29:45;96534.91;;;10.03;100.00
68226;BME280;55045;49.410;11.030;2024-03-29T11:32:49;96533.50;;;10.10;100.00
68226;BME280;55045;49.410;11.030;2024-03-29T11:35:59;96527.91;;;10.16;100.00
68226;BME280;55045;49.410;11.030;2024-03-29T11:39:02;96514.34;;;10.13;100.00
68226;BME280;55045;49.410;11.030;2024-03-29T11:42:05;96541.28;;;10.23;100.00
68226;BME280;55045;49.410;11.030;2024-03-29T11:45:08;96546.53;;;10.34;100.00
68226;BME280;55045;49.410;11.030;2024-03-29T11:48:12;96568.00;;;10.47;100.00
68226;BME280;55045;49.410;11.030;2024-03-29T11:51:20;96575.56;;;10.50;100.00
68226;BME280;55045;49.410;11.030;2024-03-29T11:54:25;96547.66;;;10.54;100.00
68226;BME280;55045;49.410;11.030;2024-03-29T11:57:30;96548.97;;;10.59;100.00
68226;BME280;55045;49.410;11.030;2024-03-29T12:00:33;96544.41;;;10.63;100.00
68226;BME280;55045;49.410;11.030;2024-03-29T12:03:38;96544.50;;;10.61;100.00
68226;BME280;55045;49.410;11.030;2024-03-29T12:06:42;96537.00;;;10.70;100.00
68226;BME280;55045;49.410;11.030;2024-03-29T12:09:46;96516.50;;;10.78;100.00
68226;BME280;55045;49.410;11.030;2024-03-29T12:12:49;96499.31;;;10.88;100.00
68226;BME280;55045;49.410;11.030;2024-03-29T12:15:52;96501.00;;;11.00;100.00
68226;BME280;55045;49.410;11.030;2024-03-29T12:18:54;96519.66;;;11.16;100.00
68226;BME280;55045;49.410;11.030;2024-03-29T12:21:58;96522.59;;;11.23;100.00
68226;BME280;55045;49.410;11.030;2024-03-29T12:25:01;96463.03;;;11.10;100.00
68226;BME280;55045;49.410;11.030;2024-03-29T12:28:05;96499.00;;;11.60;100.00
68226;BME280;55045;49.410;11.030;2024-03-29T12:31:09;96490.00;;;11.75;100.00
68226;BME280;55045;49.410;11.030;2024-03-29T12:34:21;96471.81;;;11.97;100.00
68226;BME280;55045;49.410;11.030;2024-03-29T12:37:25;96471.66;;;12.10;100.00
68226;BME280;55045;49.410;11.030;2024-03-29T12:40:31;96461.69;;;12.26;100.00
68226;BME280;55045;49.410;11.030;2024-03-29T12:43:36;96453.38;;;12.32;100.00
68226;BME280;55045;49.410;11.030;2024-03-29T12:46:39;96452.94;;;12.69;100.00
68226;BME280;55045;49.410;11.030;2024-03-29T12:49:42;96445.50;;;12.85;100.00
68226;BME280;55045;49.410;11.030;2024-03-29T12:52:48;96435.28;;;12.93;100.00
68226;BME280;55045;49.410;11.030;2024-03-29T12:55:51;96431.00;;;13.13;100.00
68226;BME280;55045;49.410;11.030;2024-03-29T12:58:54;96427.28;;;13.16;100.00
68226;BME280;55045;49.410;11.030;2024-03-29T13:01:57;96431.41;;;13.09;100.00
68226;BME280;55045;49.410;11.030;2024-03-29T13:05:00;96442.69;;;13.19;100.00
68226;BME280;55045;49.410;11.030;2024-03-29T13:08:05;96453.44;;;13.35;100.00
68226;BME280;55045;49.410;11.030;2024-03-29T13:11:08;96439.75;;;13.43;100.00
68226;BME280;55045;49.410;11.030;2024-03-29T13:14:12;96445.66;;;13.45;100.00
68226;BME280;55045;49.410;11.030;2024-03-29T13:17:14;96439.34;;;13.47;100.00
68226;BME280;55045;49.410;11.030;2024-03-29T13:20:18;96447.47;;;13.54;100.00
68226;BME280;55045;49.410;11.030;2024-03-29T13:23:23;96448.31;;;13.64;100.00
68226;BME280;55045;49.410;11.030;2024-03-29T13:26:26;96447.25;;;13.76;100.00
68226;BME280;55045;49.410;11.030;2024-03-29T13:29:30;96410.72;;;13.57;100.00
68226;BME280;55045;49.410;11.030;2024-03-29T13:32:32;96449.22;;;13.94;100.00
68226;BME280;55045;49.410;11.030;2024-03-29T13:35:35;96440.72;;;14.01;100.00
68226;BME280;55045;49.410;11.030;2024-03-29T13:38:39;96446.06;;;13.90;100.00
68226;BME280;55045;49.410;11.030;2024-03-29T13:41:43;96446.19;;;13.98;100.00
68226;BME280;55045;49.410;11.030;2024-03-29T13:44:46;96443.59;;;14.08;100.00
68226;BME280;55045;49.410;11.030;2024-03-29T13:47:49;96440.97;;;14.18;100.00
68226;BME280;55045;49.410;11.030;2024-03-29T13:50:52;96436.44;;;14.39;100.00
68226;BME280;55045;49.410;11.030;2024-03-29T13:53:56;96425.88;;;14.69;100.00
68226;BME280;55045;49.410;11.030;2024-03-29T13:57:00;96411.72;;;14.82;100.00
68226;BME280;55045;49.410;11.030;2024-03-29T14:00:06;96416.81;;;14.74;100.00
68226;BME280;55045;49.410;11.030;2024-03-29T14:03:09;96400.34;;;14.73;100.00
68226;BME280;55045;49.410;11.030;2024-03-29T14:06:12;96399.06;;;14.77;100.00
68226;BME280;55045;49.410;11.030;2024-03-29T14:09:16;96401.09;;;14.93;100.00
68226;BME280;55045;49.410;11.030;2024-03-29T14:12:19;96393.97;;;14.85;100.00
68226;BME280;55045;49.410;11.030;2024-03-29T14:15:23;96400.53;;;14.89;100.00
68226;BME280;55045;49.410;11.030;2024-03-29T14:18:26;96407.28;;;14.92;100.00
68226;BME280;55045;49.410;11.030;2024-03-29T14:21:29;96423.34;;;14.97;100.00
68226;BME280;55045;49.410;11.030;2024-03-29T14:24:33;96431.03;;;14.89;100.00
68226;BME280;55045;49.410;11.030;2024-03-29T14:27:37;96462.50;;;14.97;100.00
68226;BME280;55045;49.410;11.030;2024-03-29T14:30:48;96475.03;;;14.84;100.00
68226;BME280;55045;49.410;11.030;2024-03-29T14:33:51;96479.09;;;15.06;100.00
68226;BME280;55045;49.410;11.030;2024-03-29T14:36:54;96464.97;;;14.98;100.00
68226;BME280;55045;49.410;11.030;2024-03-29T14:39:58;96463.09;;;15.28;100.00
68226;BME280;55045;49.410;11.030;2024-03-29T14:43:01;96461.31;;;15.56;100.00
68226;BME280;55045;49.410;11.030;2024-03-29T14:46:03;96466.63;;;15.37;100.00
68226;BME280;55045;49.410;11.030;2024-03-29T14:49:06;96467.13;;;15.50;100.00
68226;BME280;55045;49.410;11.030;2024-03-29T14:52:12;96471.16;;;15.44;100.00
68226;BME280;55045;49.410;11.030;2024-03-29T14:55:16;96472.16;;;15.34;100.00
68226;BME280;55045;49.410;11.030;2024-03-29T14:58:19;96459.75;;;15.36;100.00
68226;BME280;55045;49.410;11.030;2024-03-29T15:01:22;96454.47;;;15.55;100.00
68226;BME280;55045;49.410;11.030;2024-03-29T15:04:25;96460.00;;;15.42;100.00
68226;BME280;55045;49.410;11.030;2024-03-29T15:07:27;96458.13;;;15.35;100.00
68226;BME280;55045;49.410;11.030;2024-03-29T15:10:31;96452.34;;;15.31;100.00
68226;BME280;55045;49.410;11.030;2024-03-29T15:13:35;96426.78;;;15.35;100.00
68226;BME280;55045;49.410;11.030;2024-03-29T15:16:38;96433.94;;;15.33;100.00
68226;BME280;55045;49.410;11.030;2024-03-29T15:19:41;96434.16;;;15.39;100.00
68226;BME280;55045;49.410;11.030;2024-03-29T15:22:44;96436.06;;;15.47;100.00
68226;BME280;55045;49.410;11.030;2024-03-29T15:25:49;96426.47;;;15.38;100.00
68226;BME280;55045;49.410;11.030;2024-03-29T15:28:52;96431.47;;;15.21;100.00
68226;BME280;55045;49.410;11.030;2024-03-29T15:32:21;96417.75;;;15.19;100.00
68226;BME280;55045;49.410;11.030;2024-03-29T15:35:24;96420.59;;;15.36;100.00
68226;BME280;55045;49.410;11.030;2024-03-29T15:38:27;96419.09;;;15.33;100.00
68226;BME280;55045;49.410;11.030;2024-03-29T15:41:34;96410.84;;;15.28;100.00
68226;BME280;55045;49.410;11.030;2024-03-29T15:44:37;96424.34;;;15.23;100.00
68226;BME280;55045;49.410;11.030;2024-03-29T15:47:39;96417.50;;;15.22;100.00
68226;BME280;55045;49.410;11.030;2024-03-29T15:50:42;96416.78;;;15.20;100.00
68226;BME280;55045;49.410;11.030;2024-03-29T15:53:47;96420.00;;;15.14;100.00
68226;BME280;55045;49.410;11.030;2024-03-29T15:56:51;96421.06;;;15.12;100.00
68226;BME280;55045;49.410;11.030;2024-03-29T15:59:54;96420.03;;;15.05;100.00
68226;BME280;55045;49.410;11.030;2024-03-29T16:02:57;96422.47;;;15.06;100.00
68226;BME280;55045;49.410;11.030;2024-03-29T16:06:01;96415.69;;;14.86;100.00